Time;durP1;ratioP1;P1;durP2;ratioP2;P2;SDS_P1;SDS_P2;PMS_P1;PMS_P2;Temp;Humidity;BMP_temperature;BMP_pressure;BME280_temperature;BME280_humidity;BME280_pressure;Samples;Min_cycle;Max_cycle;Signal;HPM_P1;HPM_P2
2024/02/08 00:00:33;;;;;;;6.47;2.05;;;;;;;;;;4931522;29;20016;-79
2024/02/08 00:03:04;;;;;;;6.38;1.88;;;;;;;;;;4949009;29;20603;-82
2024/02/08 00:05:31;;;;;;;5.13;1.50;;;;;;;;;;4932163;29;20142;-80
2024/02/08 00:07:57;;;;;;;6.20;2.10;;;;;;;;;;4930478;29;20039;-81
2024/02/08 00:10:23;;;;;;;4.93;1.83;;;;;;;;;;4931155;29;20452;-82
2024/02/08 00:12:50;;;;;;;4.07;1.60;;;;;;;;;;4928629;29;20055;-81
2024/02/08 00:15:16;;;;;;;5.88;1.70;;;;;;;;;;4930434;29;20105;-80
2024/02/08 00:17:43;;;;;;;5.55;1.73;;;;;;;;;;4939279;29;20045;-83
2024/02/08 00:20:10;;;;;;;5.38;1.88;;;;;;;;;;4910358;29;20098;-82
2024/02/08 00:22:37;;;;;;;4.10;1.73;;;;;;;;;;4944657;29;20032;-80
2024/02/08 00:25:05;;;;;;;3.78;1.58;;;;;;;;;;4929397;29;20064;-82
2024/02/08 00:27:31;;;;;;;4.57;1.80;;;;;;;;;;4896476;29;20063;-81
2024/02/08 00:30:01;;;;;;;5.07;1.85;;;;;;;;;;4928340;29;20072;-81
2024/02/08 00:32:27;;;;;;;5.28;1.90;;;;;;;;;;4926133;29;20058;-81
2024/02/08 00:34:55;;;;;;;5.15;1.92;;;;;;;;;;4893789;29;20047;-82
2024/02/08 00:37:21;;;;;;;6.13;2.28;;;;;;;;;;4942708;29;20087;-83
2024/02/08 00:39:47;;;;;;;8.00;2.05;;;;;;;;;;4928823;29;20091;-81
2024/02/08 00:42:16;;;;;;;6.00;1.98;;;;;;;;;;4928275;29;20031;-81
2024/02/08 00:44:45;;;;;;;5.75;2.38;;;;;;;;;;4931438;29;20036;-82
2024/02/08 00:47:11;;;;;;;8.05;2.08;;;;;;;;;;4909770;29;20083;-82
2024/02/08 00:49:40;;;;;;;6.50;1.98;;;;;;;;;;4929181;29;20040;-82
2024/02/08 00:52:08;;;;;;;4.43;1.83;;;;;;;;;;4943321;29;20035;-81
2024/02/08 00:54:37;;;;;;;5.93;2.30;;;;;;;;;;4929943;29;20071;-81
2024/02/08 00:57:10;;;;;;;11.95;2.33;;;;;;;;;;4914647;29;20043;-83
2024/02/08 00:59:39;;;;;;;5.60;2.10;;;;;;;;;;4944152;29;20027;-82
2024/02/08 01:02:05;;;;;;;4.25;2.25;;;;;;;;;;4914145;29;20074;-83
2024/02/08 01:04:32;;;;;;;4.47;1.92;;;;;;;;;;4929077;29;20046;-83
2024/02/08 01:06:58;;;;;;;5.25;1.95;;;;;;;;;;4944188;29;20038;-81
2024/02/08 01:09:32;;;;;;;9.18;2.20;;;;;;;;;;4946554;29;20043;-82
2024/02/08 01:11:58;;;;;;;11.23;1.67;;;;;;;;;;4927599;29;20035;-80
2024/02/08 01:14:23;;;;;;;6.30;2.25;;;;;;;;;;4933226;29;20134;-80
2024/02/08 01:16:51;;;;;;;9.48;2.22;;;;;;;;;;4925919;29;20100;-82
2024/02/08 01:19:22;;;;;;;4.68;2.00;;;;;;;;;;4945907;29;20114;-82
2024/02/08 01:21:50;;;;;;;7.43;2.50;;;;;;;;;;4927115;29;20063;-80
2024/02/08 01:24:18;;;;;;;6.35;2.28;;;;;;;;;;4923076;29;20040;-82
2024/02/08 01:26:45;;;;;;;4.55;1.90;;;;;;;;;;4921624;29;20075;-81
2024/02/08 01:29:11;;;;;;;7.03;1.92;;;;;;;;;;4912800;29;20047;-82
2024/02/08 01:31:38;;;;;;;4.57;2.00;;;;;;;;;;4942923;29;20499;-82
2024/02/08 01:34:07;;;;;;;6.80;2.10;;;;;;;;;;4942945;29;20495;-82
2024/02/08 01:36:35;;;;;;;4.55;2.55;;;;;;;;;;4907962;29;20503;-81
2024/02/08 01:39:05;;;;;;;8.20;2.08;;;;;;;;;;4915253;29;20072;-81
2024/02/08 01:41:31;;;;;;;4.57;1.95;;;;;;;;;;4910672;29;20043;-81
2024/02/08 01:44:03;;;;;;;5.80;2.08;;;;;;;;;;4907789;29;20035;-82
2024/02/08 01:46:37;;;;;;;6.40;2.50;;;;;;;;;;4898011;29;20031;-81
2024/02/08 01:49:13;;;;;;;5.07;2.58;;;;;;;;;;4936192;29;20035;-81
2024/02/08 01:51:39;;;;;;;7.93;2.45;;;;;;;;;;4945777;29;20388;-82
2024/02/08 01:54:12;;;;;;;6.93;2.88;;;;;;;;;;4938596;23;20051;-78
2024/02/08 01:56:44;;;;;;;7.13;2.38;;;;;;;;;;4928618;29;20188;-78
2024/02/08 01:59:11;;;;;;;5.97;2.40;;;;;;;;;;4910928;29;20118;-79
2024/02/08 02:01:37;;;;;;;4.20;2.13;;;;;;;;;;4915346;29;20036;-78
2024/02/08 02:04:07;;;;;;;6.30;2.50;;;;;;;;;;4930624;29;20060;-78
2024/02/08 02:06:35;;;;;;;6.70;2.40;;;;;;;;;;4925412;29;20053;-77
2024/02/08 02:09:03;;;;;;;7.43;3.47;;;;;;;;;;4924690;29;20036;-78
2024/02/08 02:11:38;;;;;;;8.07;2.92;;;;;;;;;;4941247;29;20036;-78
2024/02/08 02:14:05;;;;;;;8.23;3.15;;;;;;;;;;4927036;29;20056;-78
2024/02/08 02:16:33;;;;;;;7.32;3.10;;;;;;;;;;4911387;29;20408;-78
2024/02/08 02:18:59;;;;;;;7.18;3.55;;;;;;;;;;4907761;29;20104;-76
2024/02/08 02:21:27;;;;;;;9.10;3.22;;;;;;;;;;4909441;29;20032;-79
2024/02/08 02:23:53;;;;;;;6.80;2.97;;;;;;;;;;4906961;29;20067;-78
2024/02/08 02:26:19;;;;;;;9.32;3.88;;;;;;;;;;4894377;29;20039;-78
2024/02/08 02:28:46;;;;;;;5.70;3.33;;;;;;;;;;4905470;29;20040;-79
2024/02/08 02:31:13;;;;;;;8.13;3.40;;;;;;;;;;4922472;29;20111;-77
2024/02/08 02:33:41;;;;;;;6.15;3.25;;;;;;;;;;4905992;29;20487;-77
2024/02/08 02:36:07;;;;;;;7.30;3.58;;;;;;;;;;4899525;29;20036;-77
2024/02/08 02:38:35;;;;;;;7.93;3.80;;;;;;;;;;4893778;29;20051;-78
2024/02/08 02:41:06;;;;;;;8.02;3.70;;;;;;;;;;4911137;29;20036;-78
2024/02/08 02:43:34;;;;;;;7.15;3.72;;;;;;;;;;4902155;29;20040;-77
2024/02/08 02:46:01;;;;;;;8.95;3.33;;;;;;;;;;4928089;29;20115;-78
2024/02/08 02:48:28;;;;;;;6.65;3.13;;;;;;;;;;4912913;29;20090;-77
2024/02/08 02:50:53;;;;;;;6.53;3.45;;;;;;;;;;4928904;29;20098;-78
2024/02/08 02:53:24;;;;;;;7.63;3.83;;;;;;;;;;4946440;29;20051;-77
2024/02/08 02:55:50;;;;;;;10.10;4.43;;;;;;;;;;4913058;29;20032;-77
2024/02/08 02:58:16;;;;;;;7.68;3.60;;;;;;;;;;4929502;29;20032;-77
2024/02/08 03:00:41;;;;;;;7.82;3.92;;;;;;;;;;4932518;29;20043;-77
2024/02/08 03:03:07;;;;;;;7.47;3.75;;;;;;;;;;4910407;29;20484;-78
2024/02/08 03:05:39;;;;;;;10.48;4.50;;;;;;;;;;4920672;29;20034;-78
2024/02/08 03:08:06;;;;;;;7.35;3.95;;;;;;;;;;4924737;29;20048;-78
2024/02/08 03:10:32;;;;;;;7.82;4.13;;;;;;;;;;4904992;29;20032;-78
2024/02/08 03:13:01;;;;;;;9.07;4.50;;;;;;;;;;4931655;29;20035;-78
2024/02/08 03:15:27;;;;;;;8.15;4.32;;;;;;;;;;4896812;29;20040;-78
2024/02/08 03:17:52;;;;;;;9.13;4.65;;;;;;;;;;4913546;29;20376;-77
2024/02/08 03:20:24;;;;;;;11.10;4.93;;;;;;;;;;4916576;29;20051;-78
2024/02/08 03:22:50;;;;;;;16.77;5.47;;;;;;;;;;4902377;29;20043;-77
2024/02/08 03:25:16;;;;;;;11.02;5.00;;;;;;;;;;4916535;29;20035;-78
2024/02/08 03:27:42;;;;;;;8.27;4.70;;;;;;;;;;4938895;29;20399;-78
2024/02/08 03:30:19;;;;;;;9.05;4.47;;;;;;;;;;4927662;29;20032;-78
2024/02/08 03:32:47;;;;;;;9.80;4.88;;;;;;;;;;4912523;29;20064;-78
2024/02/08 03:35:13;;;;;;;10.60;4.93;;;;;;;;;;4912448;29;20040;-78
2024/02/08 03:37:39;;;;;;;10.85;4.88;;;;;;;;;;4898307;29;20046;-77
2024/02/08 03:40:08;;;;;;;8.35;4.95;;;;;;;;;;4914851;29;20495;-80
2024/02/08 03:42:35;;;;;;;11.65;5.50;;;;;;;;;;4911500;29;20087;-78
2024/02/08 03:45:13;;;;;;;12.82;6.88;;;;;;;;;;4896746;29;20087;-79
2024/02/08 03:47:39;;;;;;;10.20;5.63;;;;;;;;;;4920249;29;20447;-78
2024/02/08 03:50:05;;;;;;;11.65;5.75;;;;;;;;;;4909834;29;20063;-76
2024/02/08 03:52:31;;;;;;;13.27;6.07;;;;;;;;;;4894652;29;20134;-77
2024/02/08 03:54:57;;;;;;;13.75;6.45;;;;;;;;;;4908737;29;20048;-78
2024/02/08 03:57:24;;;;;;;12.30;5.75;;;;;;;;;;4921307;29;20039;-79
2024/02/08 03:59:52;;;;;;;25.17;12.48;;;;;;;;;;4928799;29;20460;-78
2024/02/08 04:02:21;;;;;;;22.05;11.48;;;;;;;;;;4913861;29;20127;-79
2024/02/08 04:04:54;;;;;;;13.77;7.60;;;;;;;;;;4913781;29;20078;-78
2024/02/08 04:07:45;;;;;;;15.70;6.63;;;;;;;;;;4928213;29;20456;-75
2024/02/08 04:10:29;;;;;;;12.98;7.55;;;;;;;;;;4916554;29;20039;-78
2024/02/08 04:54:42;;;;;;;13.30;7.57;;;;;;;;;;4939421;29;20059;-77
2024/02/08 04:57:09;;;;;;;16.52;8.10;;;;;;;;;;4937679;29;20035;-77
2024/02/08 04:59:44;;;;;;;15.10;8.48;;;;;;;;;;4929907;29;20072;-78
2024/02/08 05:02:11;;;;;;;19.17;8.32;;;;;;;;;;4918913;29;20027;-78
2024/02/08 05:04:37;;;;;;;15.57;8.80;;;;;;;;;;4918860;29;20031;-78
2024/02/08 05:07:04;;;;;;;17.75;9.38;;;;;;;;;;4935729;29;20407;-79
2024/02/08 05:09:31;;;;;;;19.05;9.05;;;;;;;;;;4913894;29;20344;-79
2024/02/08 05:11:59;;;;;;;20.15;11.18;;;;;;;;;;4897497;29;20035;-78
2024/02/08 05:14:26;;;;;;;19.98;10.05;;;;;;;;;;4923167;29;20027;-77
2024/02/08 05:16:56;;;;;;;18.08;8.38;;;;;;;;;;4914302;29;20042;-79
2024/02/08 05:19:23;;;;;;;21.95;10.10;;;;;;;;;;4928482;29;20031;-79
2024/02/08 05:21:50;;;;;;;24.77;10.30;;;;;;;;;;4906070;29;20032;-79
2024/02/08 05:24:18;;;;;;;24.63;11.93;;;;;;;;;;4932602;29;20127;-77
2024/02/08 05:26:46;;;;;;;17.75;9.55;;;;;;;;;;4930139;29;20039;-80
2024/02/08 05:29:19;;;;;;;23.10;10.20;;;;;;;;;;4915831;29;20060;-79
2024/02/08 05:31:49;;;;;;;19.45;9.35;;;;;;;;;;4906902;29;20165;-79
2024/02/08 05:34:16;;;;;;;19.92;9.05;;;;;;;;;;4910524;29;20031;-76
2024/02/08 05:36:45;;;;;;;18.15;10.00;;;;;;;;;;4927897;29;20034;-79
2024/02/08 05:39:24;;;;;;;19.90;9.60;;;;;;;;;;4918693;29;20401;-78
2024/02/08 05:42:07;;;;;;;18.95;9.77;;;;;;;;;;4943154;29;20040;-78
2024/02/08 05:44:40;;;;;;;25.85;10.02;;;;;;;;;;4928538;29;20467;-79
2024/02/08 05:47:07;;;;;;;17.67;9.25;;;;;;;;;;4925416;29;20044;-79
2024/02/08 05:49:34;;;;;;;21.25;10.55;;;;;;;;;;4908005;29;20488;-79
2024/02/08 05:52:05;;;;;;;28.27;10.95;;;;;;;;;;4910251;29;20050;-80
2024/02/08 05:54:36;;;;;;;19.70;9.95;;;;;;;;;;4907876;29;20496;-79
2024/02/08 05:57:15;;;;;;;19.20;9.90;;;;;;;;;;4909971;29;20040;-79
2024/02/08 05:59:44;;;;;;;23.00;10.50;;;;;;;;;;4928471;29;20047;-79
2024/02/08 06:02:14;;;;;;;18.80;9.93;;;;;;;;;;4929250;29;20503;-79
2024/02/08 06:04:40;;;;;;;20.95;10.20;;;;;;;;;;4897099;29;20111;-78
2024/02/08 06:07:08;;;;;;;20.25;9.82;;;;;;;;;;4924544;29;20040;-80
2024/02/08 06:09:55;;;;;;;19.80;10.88;;;;;;;;;;4905187;29;20039;-79
2024/02/08 06:12:42;;;;;;;22.53;10.20;;;;;;;;;;4927571;29;20035;-76
2024/02/08 06:15:21;;;;;;;19.92;9.73;;;;;;;;;;4928571;29;20297;-79
2024/02/08 06:18:09;;;;;;;26.33;11.50;;;;;;;;;;4916066;29;20036;-79
2024/02/08 06:20:43;;;;;;;26.58;13.13;;;;;;;;;;4917120;29;20033;-80
2024/02/08 06:23:16;;;;;;;18.50;10.30;;;;;;;;;;4929280;29;20036;-80
2024/02/08 06:25:45;;;;;;;21.40;10.48;;;;;;;;;;4911643;29;20036;-79
2024/02/08 06:28:12;;;;;;;19.83;10.68;;;;;;;;;;4910002;29;20039;-79
2024/02/08 06:30:46;;;;;;;18.90;10.63;;;;;;;;;;4919151;29;20111;-80
2024/02/08 06:33:25;;;;;;;23.10;10.75;;;;;;;;;;4904775;29;20288;-79
2024/02/08 06:35:56;;;;;;;23.02;11.07;;;;;;;;;;4907518;29;20121;-79
2024/02/08 06:38:40;;;;;;;23.70;12.07;;;;;;;;;;4906793;29;20099;-80
2024/02/08 06:41:09;;;;;;;22.88;10.55;;;;;;;;;;4924762;29;20059;-79
2024/02/08 06:43:57;;;;;;;22.98;10.07;;;;;;;;;;4908040;29;20036;-80
2024/02/08 06:46:47;;;;;;;22.50;11.57;;;;;;;;;;4917135;29;20040;-79
2024/02/08 07:39:21;;;;;;;31.75;13.40;;;;;;;;;;4925650;29;20107;-79
2024/02/08 07:41:40;;;;;;;24.13;10.93;;;;;;;;;;4925386;29;20051;-80
2024/02/08 07:44:09;;;;;;;25.38;11.70;;;;;;;;;;4925311;29;20067;-78
2024/02/08 07:46:40;;;;;;;23.27;10.95;;;;;;;;;;4909917;29;20051;-80
2024/02/08 07:49:06;;;;;;;21.70;11.10;;;;;;;;;;4925226;29;20069;-79
2024/02/08 07:51:33;;;;;;;22.83;11.05;;;;;;;;;;4920739;29;20039;-80
2024/02/08 07:54:10;;;;;;;29.75;11.38;;;;;;;;;;4904450;29;20119;-80
2024/02/08 07:56:46;;;;;;;27.50;10.40;;;;;;;;;;4910320;29;20027;-80
2024/02/08 07:59:16;;;;;;;20.45;10.65;;;;;;;;;;4926064;29;20103;-79
2024/02/08 08:01:49;;;;;;;22.52;10.75;;;;;;;;;;4924337;29;20040;-81
2024/02/08 08:04:41;;;;;;;19.50;10.15;;;;;;;;;;4901059;29;20127;-79
2024/02/08 08:07:01;;;;;;;19.58;10.00;;;;;;;;;;4922171;29;20040;-81
2024/02/08 08:09:26;;;;;;;23.05;12.02;;;;;;;;;;4920297;29;20032;-80
2024/02/08 08:11:52;;;;;;;22.15;10.05;;;;;;;;;;4906487;29;20039;-79
2024/02/08 08:17:10;;;;;;;16.15;9.38;;;;;;;;;;4925166;29;20042;-81
2024/02/08 08:19:41;;;;;;;18.20;9.82;;;;;;;;;;4906144;29;20039;-80
2024/02/08 08:27:47;;;;;;;20.10;8.85;;;;;;;;;;4926405;29;20446;-80
2024/02/08 08:30:27;;;;;;;19.00;9.10;;;;;;;;;;4936105;29;20051;-79
2024/02/08 08:35:43;;;;;;;20.27;9.60;;;;;;;;;;4915567;29;20038;-80
2024/02/08 08:40:47;;;;;;;19.15;10.60;;;;;;;;;;4922118;29;20061;-79
2024/02/08 08:43:22;;;;;;;20.77;10.10;;;;;;;;;;4924527;29;20122;-80
2024/02/08 08:45:53;;;;;;;20.52;10.13;;;;;;;;;;4921630;29;20091;-79
2024/02/08 08:48:24;;;;;;;16.00;9.02;;;;;;;;;;4923919;29;20458;-79
2024/02/08 08:50:55;;;;;;;16.35;9.02;;;;;;;;;;4906242;29;20094;-79
2024/02/08 08:53:27;;;;;;;20.42;10.45;;;;;;;;;;4920977;29;20031;-79
2024/02/08 08:55:55;;;;;;;21.30;9.55;;;;;;;;;;4919068;29;20035;-79
2024/02/08 08:58:27;;;;;;;17.73;9.68;;;;;;;;;;4907271;29;20113;-80
2024/02/08 09:01:40;;;;;;;19.42;10.45;;;;;;;;;;4909195;29;20027;-79
2024/02/08 09:03:55;;;;;;;19.38;9.38;;;;;;;;;;4920450;29;20074;-79
2024/02/08 09:06:27;;;;;;;17.75;8.38;;;;;;;;;;4900858;29;20031;-79
2024/02/08 09:08:56;;;;;;;16.52;8.35;;;;;;;;;;4921403;29;20475;-79
2024/02/08 09:11:25;;;;;;;21.77;8.88;;;;;;;;;;4905935;29;20035;-79
2024/02/08 09:13:51;;;;;;;15.98;8.55;;;;;;;;;;4905754;29;20036;-79
2024/02/08 09:21:32;;;;;;;15.70;8.25;;;;;;;;;;4922225;29;20043;-79
2024/02/08 09:24:03;;;;;;;17.95;9.02;;;;;;;;;;4907006;29;20055;-78
2024/02/08 09:26:46;;;;;;;18.17;7.63;;;;;;;;;;4922986;29;20051;-78
2024/02/08 09:29:12;;;;;;;14.73;7.05;;;;;;;;;;4906198;29;20035;-79
2024/02/08 09:31:38;;;;;;;15.38;7.43;;;;;;;;;;4904450;29;20404;-79
2024/02/08 09:34:14;;;;;;;17.98;7.30;;;;;;;;;;4921240;29;20028;-79
2024/02/08 09:36:50;;;;;;;16.02;7.15;;;;;;;;;;4918922;29;20040;-79
2024/02/08 09:39:15;;;;;;;13.07;7.00;;;;;;;;;;4919860;29;20376;-77
2024/02/08 09:41:47;;;;;;;13.43;7.43;;;;;;;;;;4920559;29;20087;-79
2024/02/08 09:44:13;;;;;;;14.30;7.68;;;;;;;;;;4905546;29;20116;-79
2024/02/08 09:49:16;;;;;;;15.57;8.40;;;;;;;;;;4922772;29;20098;-79
2024/02/08 09:51:52;;;;;;;22.05;10.60;;;;;;;;;;4921880;29;20372;-80
2024/02/08 09:54:27;;;;;;;17.05;7.75;;;;;;;;;;4921899;29;20038;-78
2024/02/08 09:57:01;;;;;;;19.25;8.88;;;;;;;;;;4906181;29;20090;-80
2024/02/08 10:02:32;;;;;;;15.18;7.00;;;;;;;;;;4922707;29;20047;-78
2024/02/08 10:04:59;;;;;;;15.27;6.68;;;;;;;;;;4921894;29;20040;-79
2024/02/08 10:07:37;;;;;;;23.77;7.57;;;;;;;;;;4938286;29;20028;-80
2024/02/08 10:10:15;;;;;;;17.55;8.05;;;;;;;;;;4907232;29;20067;-79
2024/02/08 10:13:04;;;;;;;14.47;8.30;;;;;;;;;;4907982;29;20050;-79
2024/02/08 10:15:39;;;;;;;15.65;7.35;;;;;;;;;;4907583;29;20289;-80
2024/02/08 10:18:10;;;;;;;14.57;7.45;;;;;;;;;;4910617;29;20032;-78
2024/02/08 10:20:45;;;;;;;18.35;8.15;;;;;;;;;;4910233;29;20483;-80
2024/02/08 10:23:35;;;;;;;14.38;7.05;;;;;;;;;;4926760;29;20036;-81
2024/02/08 10:26:19;;;;;;;18.83;8.30;;;;;;;;;;4909972;29;20051;-81
2024/02/08 10:29:00;;;;;;;17.52;8.63;;;;;;;;;;4910599;29;20086;-79
2024/02/08 10:31:28;;;;;;;14.20;6.88;;;;;;;;;;4897789;29;20530;-79
2024/02/08 10:34:09;;;;;;;24.92;11.93;;;;;;;;;;4910964;29;20032;-79
2024/02/08 10:36:35;;;;;;;19.63;8.65;;;;;;;;;;4910197;29;20067;-78
2024/02/08 10:39:08;;;;;;;40.05;14.80;;;;;;;;;;4910230;29;20038;-80
2024/02/08 10:41:57;;;;;;;24.25;10.45;;;;;;;;;;4910872;29;20049;-80
2024/02/08 10:44:27;;;;;;;14.57;7.90;;;;;;;;;;4914635;29;20039;-79
2024/02/08 10:46:57;;;;;;;15.00;8.02;;;;;;;;;;4930867;29;20044;-79
2024/02/08 10:49:23;;;;;;;20.80;8.85;;;;;;;;;;4927380;29;20099;-80
2024/02/08 10:51:49;;;;;;;15.48;8.73;;;;;;;;;;4926575;29;20082;-80
2024/02/08 10:54:22;;;;;;;21.35;9.32;;;;;;;;;;4910686;29;20066;-79
2024/02/08 10:57:06;;;;;;;16.85;8.95;;;;;;;;;;4925310;29;20310;-79
2024/02/08 10:59:48;;;;;;;15.63;8.90;;;;;;;;;;4925471;29;20087;-80
2024/02/08 11:02:35;;;;;;;16.63;9.30;;;;;;;;;;4924696;29;20035;-80
2024/02/08 11:05:20;;;;;;;19.02;9.43;;;;;;;;;;4909904;29;20039;-79
2024/02/08 11:07:53;;;;;;;18.48;8.82;;;;;;;;;;4910938;29;20043;-80
2024/02/08 11:10:31;;;;;;;17.58;8.88;;;;;;;;;;4909722;29;20624;-78
2024/02/08 11:13:10;;;;;;;22.88;8.68;;;;;;;;;;4925902;29;20042;-79
2024/02/08 11:15:39;;;;;;;16.85;7.50;;;;;;;;;;4926193;29;20099;-79
2024/02/08 11:18:05;;;;;;;13.98;7.90;;;;;;;;;;4926737;29;20039;-79
2024/02/08 11:20:43;;;;;;;15.38;7.07;;;;;;;;;;4909890;29;20039;-79
2024/02/08 11:23:11;;;;;;;14.57;7.50;;;;;;;;;;4925199;29;20110;-79
2024/02/08 11:25:44;;;;;;;15.30;8.80;;;;;;;;;;4942463;29;20460;-80
2024/02/08 11:28:17;;;;;;;16.92;8.52;;;;;;;;;;4925860;29;20119;-78
2024/02/08 11:30:46;;;;;;;17.75;8.80;;;;;;;;;;4931438;29;20062;-78
2024/02/08 11:33:13;;;;;;;18.20;9.00;;;;;;;;;;4914649;29;20071;-80
2024/02/08 11:35:56;;;;;;;14.60;8.40;;;;;;;;;;4915021;29;20234;-80
2024/02/08 11:38:26;;;;;;;14.73;8.13;;;;;;;;;;4931489;29;20124;-78
2024/02/08 11:40:55;;;;;;;15.20;8.07;;;;;;;;;;4916105;29;20035;-79
2024/02/08 11:43:23;;;;;;;15.30;7.93;;;;;;;;;;4931912;29;20030;-79
2024/02/08 11:45:54;;;;;;;15.80;7.88;;;;;;;;;;4930356;29;20039;-79
2024/02/08 11:48:27;;;;;;;16.25;7.47;;;;;;;;;;4914724;29;20046;-80
2024/02/08 11:54:29;;;;;;;12.93;7.53;;;;;;;;;;4946018;29;20042;-79
2024/02/08 11:57:01;;;;;;;12.52;6.80;;;;;;;;;;4914216;29;20059;-78
2024/02/08 11:59:29;;;;;;;13.43;7.28;;;;;;;;;;4913692;29;20497;-79
2024/02/08 12:02:00;;;;;;;14.27;7.63;;;;;;;;;;4912690;29;20483;-79
2024/02/08 12:04:37;;;;;;;14.57;7.55;;;;;;;;;;4925339;29;20043;-79
2024/02/08 12:07:14;;;;;;;18.05;9.13;;;;;;;;;;4924749;29;20070;-80
2024/02/08 12:10:09;;;;;;;18.25;8.68;;;;;;;;;;4926555;29;20034;-78
2024/02/08 12:12:40;;;;;;;17.40;7.68;;;;;;;;;;4909228;29;20162;-79
2024/02/08 12:15:06;;;;;;;15.50;6.15;;;;;;;;;;4924301;29;20410;-79
2024/02/08 12:17:39;;;;;;;9.65;4.72;;;;;;;;;;4925548;29;20046;-79
2024/02/08 12:20:09;;;;;;;12.02;5.05;;;;;;;;;;4924772;29;20038;-79
2024/02/08 12:22:41;;;;;;;10.13;5.22;;;;;;;;;;4924213;29;20036;-79
2024/02/08 12:25:18;;;;;;;11.23;5.35;;;;;;;;;;4909512;29;20070;-80
2024/02/08 12:27:48;;;;;;;13.95;5.80;;;;;;;;;;4909791;29;20063;-79
2024/02/08 12:30:16;;;;;;;10.23;5.43;;;;;;;;;;4941028;29;20040;-79
2024/02/08 12:32:43;;;;;;;14.43;5.90;;;;;;;;;;4905503;29;20035;-79
2024/02/08 12:35:14;;;;;;;12.70;5.95;;;;;;;;;;4921544;29;20135;-79
2024/02/08 12:37:41;;;;;;;11.85;5.47;;;;;;;;;;4906228;29;20028;-79
2024/02/08 12:40:16;;;;;;;13.32;7.13;;;;;;;;;;4891800;29;20036;-79
2024/02/08 12:42:46;;;;;;;9.98;5.88;;;;;;;;;;4890649;29;20350;-79
2024/02/08 12:45:17;;;;;;;11.43;5.68;;;;;;;;;;4888909;29;20063;-79
2024/02/08 12:47:49;;;;;;;17.30;6.88;;;;;;;;;;4874517;29;20046;-79
2024/02/08 12:50:16;;;;;;;14.93;6.40;;;;;;;;;;4905953;29;20050;-79
2024/02/08 12:52:47;;;;;;;15.43;6.47;;;;;;;;;;4890738;29;20032;-80
2024/02/08 12:55:29;;;;;;;16.35;6.53;;;;;;;;;;4890747;29;20032;-80
2024/02/08 12:57:58;;;;;;;14.10;6.30;;;;;;;;;;4889545;29;20035;-79
2024/02/08 13:00:27;;;;;;;12.80;5.40;;;;;;;;;;4889713;29;20398;-79
2024/02/08 13:02:56;;;;;;;16.05;7.28;;;;;;;;;;4903827;29;20036;-78
2024/02/08 13:05:28;;;;;;;12.63;6.53;;;;;;;;;;4918835;29;20119;-79
2024/02/08 13:07:58;;;;;;;13.63;5.95;;;;;;;;;;4920807;29;20036;-78
2024/02/08 13:10:24;;;;;;;11.32;6.15;;;;;;;;;;4920040;29;20040;-79
2024/02/08 13:13:00;;;;;;;13.10;6.55;;;;;;;;;;4904377;29;20040;-79
2024/02/08 13:15:31;;;;;;;11.32;6.32;;;;;;;;;;4903326;29;20048;-79
2024/02/08 13:17:57;;;;;;;16.80;6.90;;;;;;;;;;4908230;29;20051;-79
2024/02/08 13:20:23;;;;;;;12.40;6.50;;;;;;;;;;4908038;29;20040;-79
2024/02/08 13:22:52;;;;;;;15.05;7.10;;;;;;;;;;4906695;29;20112;-79
2024/02/08 13:25:30;;;;;;;22.80;10.32;;;;;;;;;;4906779;29;20032;-78
2024/02/08 13:27:59;;;;;;;19.90;9.52;;;;;;;;;;4907519;29;20040;-79
2024/02/08 13:30:26;;;;;;;16.33;7.90;;;;;;;;;;4910481;29;20032;-78
2024/02/08 13:32:52;;;;;;;19.20;7.72;;;;;;;;;;4921734;29;20043;-78
2024/02/08 13:35:18;;;;;;;18.48;7.57;;;;;;;;;;4913828;29;20046;-78
2024/02/08 13:37:50;;;;;;;19.05;9.20;;;;;;;;;;4913340;29;20118;-78
2024/02/08 13:40:18;;;;;;;18.90;8.45;;;;;;;;;;4943089;29;20078;-80
2024/02/08 13:42:50;;;;;;;16.38;7.78;;;;;;;;;;4924977;29;20031;-79
2024/02/08 13:45:24;;;;;;;14.07;7.63;;;;;;;;;;4941038;29;20096;-80
2024/02/08 13:47:50;;;;;;;15.68;6.63;;;;;;;;;;4924035;29;20027;-79
2024/02/08 13:50:19;;;;;;;20.38;7.88;;;;;;;;;;4924374;29;20110;-79
2024/02/08 13:52:48;;;;;;;16.02;7.75;;;;;;;;;;4923883;29;20051;-80
2024/02/08 13:55:18;;;;;;;14.55;6.90;;;;;;;;;;4924358;29;20063;-79
2024/02/08 13:57:46;;;;;;;;;;;;;;;;;;4925808;29;20055;-79
2024/02/08 14:00:20;;;;;;;16.58;7.10;;;;;;;;;;4910092;29;19973;-79
2024/02/08 14:02:55;;;;;;;19.48;7.72;;;;;;;;;;4925420;29;20032;-79
2024/02/08 14:05:24;;;;;;;13.88;6.90;;;;;;;;;;4923800;29;20080;-79
2024/02/08 14:07:54;;;;;;;17.08;7.25;;;;;;;;;;4909475;29;20134;-79
2024/02/08 14:10:27;;;;;;;16.05;7.43;;;;;;;;;;4924786;29;20035;-79
2024/02/08 14:12:59;;;;;;;16.85;6.93;;;;;;;;;;4910723;29;20107;-79
2024/02/08 14:15:31;;;;;;;16.70;7.25;;;;;;;;;;4924755;29;20040;-79
2024/02/08 14:17:58;;;;;;;14.30;6.43;;;;;;;;;;4925413;29;20039;-78
2024/02/08 14:20:30;;;;;;;16.30;6.07;;;;;;;;;;4925683;29;20036;-79
2024/02/08 14:22:59;;;;;;;23.95;8.07;;;;;;;;;;4910315;29;20051;-78
2024/02/08 14:25:37;;;;;;;20.38;7.88;;;;;;;;;;4911540;29;20399;-79
2024/02/08 14:28:08;;;;;;;13.38;6.88;;;;;;;;;;4911813;29;20114;-80
2024/02/08 14:30:40;;;;;;;12.88;6.47;;;;;;;;;;4926514;29;20032;-79
2024/02/08 14:33:11;;;;;;;12.30;5.85;;;;;;;;;;4908237;29;20036;-79
2024/02/08 14:35:40;;;;;;;11.02;6.50;;;;;;;;;;4909562;29;20047;-79
2024/02/08 14:38:09;;;;;;;14.85;6.63;;;;;;;;;;4927060;29;20032;-80
2024/02/08 14:40:44;;;;;;;11.25;5.97;;;;;;;;;;4912526;29;20074;-80
2024/02/08 14:43:13;;;;;;;15.65;6.90;;;;;;;;;;4912625;29;20036;-82
2024/02/08 14:45:39;;;;;;;12.65;6.35;;;;;;;;;;4930718;29;20032;-80
2024/02/08 14:48:09;;;;;;;14.40;6.13;;;;;;;;;;4915337;29;20353;-80
2024/02/08 14:50:53;;;;;;;17.85;6.40;;;;;;;;;;4913578;29;20036;-79
2024/02/08 14:53:19;;;;;;;16.67;6.68;;;;;;;;;;4910015;29;20094;-80
2024/02/08 14:55:52;;;;;;;12.27;6.20;;;;;;;;;;4910533;29;20036;-79
2024/02/08 14:58:33;;;;;;;14.80;5.90;;;;;;;;;;4911898;29;20032;-80
2024/02/08 15:01:30;;;;;;;14.75;6.20;;;;;;;;;;4911453;29;20495;-79
2024/02/08 15:03:58;;;;;;;11.18;5.78;;;;;;;;;;4910451;29;20040;-79
2024/02/08 15:07:05;;;;;;;15.70;7.35;;;;;;;;;;4915341;29;20040;-78
2024/02/08 15:12:00;;;;;;;14.68;7.60;;;;;;;;;;4919708;29;20101;-80
2024/02/08 15:14:35;;;;;;;13.70;7.35;;;;;;;;;;4918271;29;20040;-79
2024/02/08 15:17:07;;;;;;;17.98;6.88;;;;;;;;;;4922035;29;20059;-79
2024/02/08 15:19:34;;;;;;;12.57;6.70;;;;;;;;;;4920967;29;20055;-80
2024/02/08 15:22:18;;;;;;;16.73;7.35;;;;;;;;;;4921513;29;20105;-80
2024/02/08 15:24:46;;;;;;;10.82;6.63;;;;;;;;;;4923580;29;20441;-79
2024/02/08 15:27:18;;;;;;;13.00;6.15;;;;;;;;;;4938616;29;20027;-78
2024/02/08 15:30:05;;;;;;;13.07;6.72;;;;;;;;;;4920449;29;20083;-80
2024/02/08 15:32:40;;;;;;;12.65;7.00;;;;;;;;;;4926777;29;20040;-79
2024/02/08 15:35:09;;;;;;;12.15;6.20;;;;;;;;;;4942269;29;20032;-79
2024/02/08 15:37:43;;;;;;;15.13;8.07;;;;;;;;;;4928791;29;20032;-79
2024/02/08 15:42:40;;;;;;;18.55;7.82;;;;;;;;;;4944760;29;20023;-80
2024/02/08 15:45:10;;;;;;;13.10;7.22;;;;;;;;;;4943667;29;20082;-79
2024/02/08 15:47:54;;;;;;;19.52;7.47;;;;;;;;;;4943657;29;20035;-79
2024/02/08 15:50:42;;;;;;;15.02;7.18;;;;;;;;;;4943683;29;20019;-80
2024/02/08 15:53:17;;;;;;;14.52;6.70;;;;;;;;;;4925925;29;20040;-79
2024/02/08 15:55:50;;;;;;;20.30;8.80;;;;;;;;;;4919271;29;20028;-79
2024/02/08 15:58:17;;;;;;;11.13;5.68;;;;;;;;;;4935401;29;20032;-79
2024/02/08 16:03:28;;;;;;;10.18;4.88;;;;;;;;;;4946729;29;20038;-79
2024/02/08 16:05:56;;;;;;;12.35;5.40;;;;;;;;;;4925541;29;20499;-78
2024/02/08 16:08:32;;;;;;;11.32;5.70;;;;;;;;;;4926008;29;20046;-79
2024/02/08 16:11:08;;;;;;;12.63;6.28;;;;;;;;;;4926181;29;20103;-79
2024/02/08 16:13:42;;;;;;;10.68;5.20;;;;;;;;;;4911470;29;20047;-80
2024/02/08 16:16:16;;;;;;;16.90;7.15;;;;;;;;;;4928093;29;20067;-80
2024/02/08 16:18:47;;;;;;;11.63;5.25;;;;;;;;;;4926934;29;20056;-80
2024/02/08 16:21:25;;;;;;;8.27;4.20;;;;;;;;;;4944571;29;20024;-79
2024/02/08 16:23:53;;;;;;;17.38;6.60;;;;;;;;;;4913680;29;20130;-79
2024/02/08 16:26:34;;;;;;;17.15;6.82;;;;;;;;;;4943284;29;20107;-81
2024/02/08 16:29:08;;;;;;;9.02;4.38;;;;;;;;;;4926839;29;20148;-80
2024/02/08 16:31:43;;;;;;;9.10;4.30;;;;;;;;;;4926586;29;20040;-79
2024/02/08 16:34:26;;;;;;;6.63;3.65;;;;;;;;;;4924433;29;20067;-80
2024/02/08 16:36:52;;;;;;;6.57;3.10;;;;;;;;;;4909672;29;20039;-78
2024/02/08 16:41:48;;;;;;;8.95;4.47;;;;;;;;;;4940865;29;20032;-79
2024/02/08 16:44:21;;;;;;;9.05;4.28;;;;;;;;;;4910635;29;20048;-79
2024/02/08 16:46:53;;;;;;;10.38;5.10;;;;;;;;;;4943433;29;20455;-79
2024/02/08 16:49:19;;;;;;;10.52;4.78;;;;;;;;;;4942525;29;20403;-80
2024/02/08 16:51:47;;;;;;;9.40;4.63;;;;;;;;;;4940550;29;20036;-79
2024/02/08 16:54:34;;;;;;;9.45;4.40;;;;;;;;;;4909656;29;20035;-80
2024/02/08 16:57:03;;;;;;;11.55;4.25;;;;;;;;;;4926071;29;20084;-79
2024/02/08 16:59:35;;;;;;;14.75;5.95;;;;;;;;;;4926696;29;20044;-79
2024/02/08 17:02:07;;;;;;;8.15;4.38;;;;;;;;;;4926575;29;20035;-80
2024/02/08 17:04:57;;;;;;;10.20;5.13;;;;;;;;;;4927659;29;20040;-79